Orbital elements of RESURS O1 DEB
| Launched | 3 November 1994 |
| Flight ended | – |
| Launch site | Tyuratam Missile and Space Center, Kazakhstan (Also known as Baikonur Cosmodrome) |
| Owner | Commonwealth of Independent States (former USSR) |
| NORAD ID | 23345 |
| Date fetched |
Epoch osculation |
Inc. [°] |
Ecc. | RA asc node [hr] |
Arg Peri. [°] |
Mean anom [°] |
Mean motion [rev/day] |
Abs. mag |
| Date fetched |
Epoch osculation |
Inc. [°] |
Ecc. | RA asc node [hr] |
Arg Peri. [°] |
Mean anom [°] |
Mean motion [rev/day] |
Abs. mag |
| 2026 May 05 17:57 | 2026 May 05 09:52:25 | 97.8234 | 0.01875 | 19.1593 | 306.0638 | 81.0200 | 14.33821 | – |
| 2026 May 04 17:57 | 2026 Apr 30 11:08:57 | 97.8228 | 0.01877 | 18.8606 | 321.0872 | 81.0200 | 14.33821 | – |
| 2026 May 03 17:57 | 2026 Apr 30 11:08:57 | 97.8228 | 0.01877 | 18.8606 | 321.0872 | 81.0200 | 14.33821 | – |
| 2026 May 02 17:57 | 2026 Apr 30 11:08:57 | 97.8228 | 0.01877 | 18.8606 | 321.0872 | 81.0200 | 14.33821 | – |
| 2026 May 01 17:56 | 2026 Apr 30 11:08:57 | 97.8228 | 0.01877 | 18.8606 | 321.0872 | 81.0200 | 14.33821 | – |
| 2026 Apr 30 17:56 | 2026 Apr 30 11:08:57 | 97.8228 | 0.01877 | 18.8606 | 321.0872 | 81.0200 | 14.33821 | – |
| 2026 Apr 29 17:57 | 2026 Apr 24 11:06:10 | 97.8222 | 0.01881 | 18.4983 | 339.2886 | 81.0200 | 14.33821 | – |
| 2026 Apr 28 17:56 | 2026 Apr 24 11:06:10 | 97.8222 | 0.01881 | 18.4983 | 339.2886 | 81.0200 | 14.33821 | – |
| 2026 Apr 27 17:58 | 2026 Apr 24 11:06:10 | 97.8222 | 0.01881 | 18.4983 | 339.2886 | 81.0200 | 14.33821 | – |
| 2026 Apr 26 17:58 | 2026 Apr 24 11:06:10 | 97.8222 | 0.01881 | 18.4983 | 339.2886 | 81.0200 | 14.33821 | – |
| 2026 Apr 25 17:58 | 2026 Apr 24 11:06:10 | 97.8222 | 0.01881 | 18.4983 | 339.2886 | 81.0200 | 14.33821 | – |
| 2026 Apr 24 17:59 | 2026 Apr 24 11:06:10 | 97.8222 | 0.01881 | 18.4983 | 339.2886 | 81.0200 | 14.33821 | – |
| 2026 Apr 23 17:57 | 2026 Apr 19 07:24:06 | 97.8214 | 0.01884 | 18.1873 | 354.8973 | 81.0200 | 14.33821 | – |
| 2026 Apr 22 17:57 | 2026 Apr 19 07:24:06 | 97.8214 | 0.01884 | 18.1873 | 354.8973 | 81.0200 | 14.33821 | – |
| 2026 Apr 21 17:57 | 2026 Apr 19 07:24:06 | 97.8214 | 0.01884 | 18.1873 | 354.8973 | 81.0200 | 14.33821 | – |
| 2026 Apr 20 17:57 | 2026 Apr 19 07:24:06 | 97.8214 | 0.01884 | 18.1873 | 354.8973 | 81.0200 | 14.33821 | – |
| 2026 Apr 19 17:58 | 2026 Apr 19 07:24:06 | 97.8214 | 0.01884 | 18.1873 | 354.8973 | 81.0200 | 14.33821 | – |
| 2026 Apr 18 17:56 | 2026 Apr 13 07:21:56 | 97.8206 | 0.01889 | 17.8251 | 13.0427 | 81.0200 | 14.33821 | – |
| 2026 Apr 16 17:57 | 2026 Apr 13 07:21:56 | 97.8206 | 0.01889 | 17.8251 | 13.0427 | 81.0200 | 14.33821 | – |
| 2026 Apr 14 17:57 | 2026 Apr 13 07:21:56 | 97.8206 | 0.01889 | 17.8251 | 13.0427 | 81.0200 | 14.33821 | – |
| 2026 Apr 13 17:57 | 2026 Apr 13 07:21:56 | 97.8206 | 0.01889 | 17.8251 | 13.0427 | 81.0200 | 14.33821 | – |
| 2026 Apr 12 17:57 | 2026 Apr 08 09:43:53 | 97.8202 | 0.01892 | 17.5293 | 27.8330 | 81.0200 | 14.33821 | – |
| 2026 Apr 11 17:57 | 2026 Apr 08 09:43:53 | 97.8202 | 0.01892 | 17.5293 | 27.8330 | 81.0200 | 14.33821 | – |
| 2026 Apr 10 17:58 | 2026 Apr 08 09:43:53 | 97.8202 | 0.01892 | 17.5293 | 27.8330 | 81.0200 | 14.33821 | – |
| 2026 Apr 09 18:01 | 2026 Apr 08 09:43:53 | 97.8202 | 0.01892 | 17.5293 | 27.8330 | 81.0200 | 14.33821 | – |
| 2026 Apr 08 17:57 | 2026 Apr 08 09:43:53 | 97.8202 | 0.01892 | 17.5293 | 27.8330 | 81.0200 | 14.33821 | – |